Time;durP1;ratioP1;P1;durP2;ratioP2;P2;SDS_P1;SDS_P2;PMS_P1;PMS_P2;Temp;Humidity;BMP_temperature;BMP_pressure;BME280_temperature;BME280_humidity;BME280_pressure;Samples;Min_cycle;Max_cycle;Signal;HPM_P1;HPM_P2
2021/01/09 00:00:38;;;;;;;26.30;12.43;;;1.80;91.90;;;;;;6243819;22;20004;-85
2021/01/09 00:03:04;;;;;;;24.97;12.47;;;1.90;91.90;;;;;;6219322;23;20448;-86
2021/01/09 00:05:29;;;;;;;22.90;12.63;;;1.80;92.10;;;;;;6246058;22;19992;-86
2021/01/09 00:07:55;;;;;;;23.50;12.43;;;1.80;91.90;;;;;;6219107;23;20001;-85
2021/01/09 00:10:20;;;;;;;21.27;12.47;;;1.80;92.00;;;;;;6245260;23;20004;-85
2021/01/09 00:12:46;;;;;;;21.93;11.53;;;1.90;92.00;;;;;;6218690;23;20008;-86
2021/01/09 00:15:12;;;;;;;21.73;12.20;;;1.80;91.90;;;;;;6219121;22;20105;-85
2021/01/09 00:17:38;;;;;;;21.27;11.77;;;1.90;92.00;;;;;;6219153;23;19996;-85
2021/01/09 00:20:12;;;;;;;21.57;12.03;;;1.90;92.00;;;;;;6245172;23;20007;-85
2021/01/09 00:22:38;;;;;;;21.07;11.13;;;1.80;92.10;;;;;;6244198;22;20032;-86
2021/01/09 00:25:06;;;;;;;18.53;11.30;;;1.80;92.10;;;;;;6245747;23;20007;-85
2021/01/09 00:27:31;;;;;;;19.47;11.13;;;1.90;92.00;;;;;;6218691;23;20042;-85
2021/01/09 00:29:57;;;;;;;19.87;10.43;;;1.90;92.00;;;;;;6218345;23;20008;-86
2021/01/09 00:32:22;;;;;;;20.23;10.83;;;1.90;91.80;;;;;;6245385;23;20008;-86
2021/01/09 00:34:48;;;;;;;22.10;12.03;;;1.90;91.90;;;;;;6218889;23;20030;-85
2021/01/09 00:37:14;;;;;;;20.70;11.50;;;1.90;91.80;;;;;;6245411;22;20012;-86
2021/01/09 00:39:39;;;;;;;18.50;10.77;;;1.90;91.90;;;;;;6218214;23;20000;-86
2021/01/09 00:42:05;;;;;;;18.77;10.10;;;1.90;92.00;;;;;;6244100;23;20008;-86
2021/01/09 00:44:31;;;;;;;19.33;9.83;;;1.90;92.10;;;;;;6218949;23;20015;-85
2021/01/09 00:46:58;;;;;;;18.43;10.37;;;1.90;92.00;;;;;;6245631;22;20004;-86
2021/01/09 00:49:24;;;;;;;19.67;10.93;;;1.90;92.00;;;;;;6218264;23;20083;-86
2021/01/09 00:51:50;;;;;;;22.47;11.00;;;1.90;92.00;;;;;;6219711;23;20012;-85
2021/01/09 00:54:16;;;;;;;18.73;9.80;;;1.90;91.80;;;;;;6237264;23;20000;-85
2021/01/09 00:56:42;;;;;;;19.10;9.93;;;1.90;91.70;;;;;;6265515;22;20000;-85
2021/01/09 00:59:08;;;;;;;14.80;9.53;;;1.90;91.70;;;;;;6258804;23;20042;-85
2021/01/09 01:01:34;;;;;;;19.10;9.27;;;1.80;91.80;;;;;;6245574;23;20312;-86
2021/01/09 01:04:00;;;;;;;17.60;9.73;;;1.80;91.80;;;;;;6218966;23;20032;-86
2021/01/09 01:06:26;;;;;;;19.50;10.63;;;1.90;91.80;;;;;;6218541;23;20011;-85
2021/01/09 01:08:52;;;;;;;19.33;10.93;;;1.80;91.90;;;;;;6244605;23;20385;-85
2021/01/09 01:11:24;;;;;;;18.33;9.67;;;1.90;91.80;;;;;;6218294;23;20034;-85
2021/01/09 01:13:50;;;;;;;18.57;10.13;;;1.70;92.00;;;;;;6245631;23;20327;-85
2021/01/09 01:16:16;;;;;;;20.90;10.37;;;1.80;91.90;;;;;;6218441;23;20087;-85
2021/01/09 01:18:42;;;;;;;20.57;10.93;;;1.80;91.80;;;;;;6245739;23;19996;-86
2021/01/09 01:21:07;;;;;;;17.63;10.13;;;1.80;92.00;;;;;;6243532;23;20004;-85
2021/01/09 01:23:33;;;;;;;17.03;9.83;;;1.80;92.00;;;;;;6218722;23;20001;-86
2021/01/09 01:25:58;;;;;;;18.63;9.70;;;1.80;92.00;;;;;;6218284;23;20012;-85
2021/01/09 01:28:24;;;;;;;17.50;9.97;;;1.80;92.00;;;;;;6218793;23;20070;-85
2021/01/09 01:30:50;;;;;;;16.17;9.67;;;1.80;92.10;;;;;;6244367;23;20004;-85
2021/01/09 01:33:15;;;;;;;15.97;9.50;;;1.80;92.00;;;;;;6218326;23;20001;-85
2021/01/09 01:35:41;;;;;;;19.70;10.67;;;1.80;92.10;;;;;;6218589;23;20012;-85
2021/01/09 01:38:07;;;;;;;21.60;9.67;;;1.80;92.10;;;;;;6245519;23;20004;-86
2021/01/09 01:40:32;;;;;;;16.97;9.43;;;1.80;92.30;;;;;;6217661;23;20008;-86
2021/01/09 01:42:58;;;;;;;18.80;10.23;;;1.80;92.20;;;;;;6218192;23;20015;-85
2021/01/09 01:45:23;;;;;;;18.13;10.40;;;1.80;92.30;;;;;;6218138;22;19996;-85
2021/01/09 01:47:49;;;;;;;21.47;9.93;;;1.80;92.30;;;;;;6218288;23;20079;-86
2021/01/09 01:50:15;;;;;;;20.20;10.30;;;1.80;92.20;;;;;;6217670;23;20336;-85
2021/01/09 01:52:41;;;;;;;18.13;9.90;;;1.90;92.10;;;;;;6217930;23;20450;-85
2021/01/09 01:55:09;;;;;;;17.63;9.80;;;1.90;92.10;;;;;;6245079;22;20063;-85
2021/01/09 01:57:34;;;;;;;16.67;9.80;;;2.00;92.00;;;;;;6218481;23;20004;-85
2021/01/09 02:00:00;;;;;;;16.03;9.40;;;2.00;91.80;;;;;;6217214;23;20007;-85
2021/01/09 02:02:26;;;;;;;17.90;9.93;;;2.00;91.80;;;;;;6217579;23;20043;-85
2021/01/09 02:04:58;;;;;;;19.00;10.00;;;1.90;92.00;;;;;;6218239;23;20004;-86
2021/01/09 02:07:28;;;;;;;21.10;10.40;;;2.00;92.10;;;;;;6217965;23;20004;-86
2021/01/09 02:09:56;;;;;;;17.50;9.90;;;2.00;92.10;;;;;;6244344;23;20063;-86
2021/01/09 02:12:43;;;;;;;16.47;9.20;;;2.00;92.20;;;;;;6244707;23;20330;-85
2021/01/09 02:15:10;;;;;;;16.03;9.13;;;2.00;92.20;;;;;;6217990;22;20004;-86
2021/01/09 02:17:37;;;;;;;16.13;9.60;;;2.10;92.00;;;;;;6217851;23;20054;-86
2021/01/09 02:20:03;;;;;;;16.40;9.93;;;2.10;92.00;;;;;;6217066;23;20004;-85
2021/01/09 02:22:47;;;;;;;18.30;9.80;;;2.10;92.00;;;;;;6244666;23;20004;-85
2021/01/09 02:25:13;;;;;;;16.37;9.60;;;2.00;92.10;;;;;;6244483;22;20000;-86
2021/01/09 02:27:39;;;;;;;18.73;9.73;;;2.00;92.10;;;;;;6218007;23;20070;-86
2021/01/09 02:30:14;;;;;;;18.60;9.50;;;2.00;92.20;;;;;;6244502;23;20008;-86
2021/01/09 02:33:00;;;;;;;18.03;9.23;;;2.00;92.10;;;;;;6217933;23;20087;-86
2021/01/09 02:35:27;;;;;;;16.93;9.23;;;2.00;92.10;;;;;;6244057;22;20007;-86
2021/01/09 02:37:54;;;;;;;18.03;10.00;;;2.00;92.40;;;;;;6218013;23;20007;-86
2021/01/09 02:40:23;;;;;;;14.67;8.97;;;2.00;92.40;;;;;;6217060;23;20004;-85
2021/01/09 02:42:49;;;;;;;18.95;9.15;;;2.10;92.30;;;;;;6218272;23;20004;-86
2021/01/09 02:45:15;;;;;;;17.60;9.20;;;2.20;92.10;;;;;;6244762;22;20053;-86
2021/01/09 02:47:41;;;;;;;16.20;9.13;;;2.20;92.10;;;;;;6218021;23;20015;-86
2021/01/09 02:50:10;;;;;;;18.30;10.63;;;2.20;91.90;;;;;;6244063;23;20004;-85
2021/01/09 02:52:40;;;;;;;20.45;11.27;;;2.30;91.90;;;;;;6217828;23;20008;-86
2021/01/09 02:55:07;;;;;;;18.30;10.00;;;2.30;91.90;;;;;;6218032;23;20005;-86
2021/01/09 02:57:33;;;;;;;18.53;10.17;;;2.30;91.90;;;;;;6218110;23;20050;-86
2021/01/09 02:59:59;;;;;;;18.40;9.87;;;2.30;91.90;;;;;;6217244;23;20004;-85
2021/01/09 03:02:24;;;;;;;17.50;9.60;;;2.30;92.00;;;;;;6217865;23;20146;-85
2021/01/09 03:04:50;;;;;;;17.97;9.63;;;2.10;92.20;;;;;;6218027;23;20362;-86
2021/01/09 03:07:16;;;;;;;17.03;10.37;;;2.10;92.50;;;;;;6217919;23;20040;-86
2021/01/09 03:09:41;;;;;;;17.57;10.10;;;2.10;92.50;;;;;;6217220;23;20062;-86
2021/01/09 03:12:08;;;;;;;16.97;9.30;;;2.10;92.60;;;;;;6217703;23;20000;-86
2021/01/09 03:14:33;;;;;;;17.93;9.47;;;2.10;92.70;;;;;;6217994;23;20008;-86
2021/01/09 03:16:59;;;;;;;18.47;9.33;;;2.10;92.80;;;;;;6216994;23;20387;-86
2021/01/09 03:19:25;;;;;;;19.27;9.83;;;2.10;92.90;;;;;;6215978;23;20004;-85
2021/01/09 03:21:51;;;;;;;17.23;9.70;;;2.00;92.90;;;;;;6244833;23;20008;-86
2021/01/09 03:24:16;;;;;;;18.67;9.03;;;2.10;92.90;;;;;;6217988;23;20000;-85
2021/01/09 03:26:42;;;;;;;17.63;8.73;;;2.10;92.90;;;;;;6217821;23;20031;-86
2021/01/09 03:29:08;;;;;;;18.03;9.27;;;2.10;92.70;;;;;;6217484;23;20051;-86
2021/01/09 03:31:33;;;;;;;17.17;9.57;;;2.20;92.70;;;;;;6218196;23;20497;-85
2021/01/09 03:33:59;;;;;;;16.07;9.07;;;2.20;92.80;;;;;;6220234;23;20370;-85
2021/01/09 03:36:24;;;;;;;16.80;9.40;;;2.20;92.70;;;;;;6220965;23;20031;-86
2021/01/09 03:38:50;;;;;;;15.57;9.00;;;2.20;92.60;;;;;;6219971;23;20004;-85
2021/01/09 03:41:16;;;;;;;15.73;8.33;;;2.10;93.00;;;;;;6247116;23;20062;-85
2021/01/09 03:43:41;;;;;;;17.93;9.10;;;2.20;93.10;;;;;;6248337;23;20000;-86
2021/01/09 03:46:07;;;;;;;17.87;9.07;;;2.10;92.90;;;;;;6221417;23;20091;-86
2021/01/09 03:48:33;;;;;;;18.73;8.63;;;2.20;93.10;;;;;;6227174;23;20007;-85
2021/01/09 03:50:58;;;;;;;15.17;8.77;;;2.10;92.80;;;;;;6244631;23;20039;-85
2021/01/09 03:53:24;;;;;;;17.63;9.23;;;2.10;92.90;;;;;;6272892;23;20003;-85
2021/01/09 03:55:49;;;;;;;14.93;8.13;;;2.00;92.70;;;;;;6273431;22;20000;-85
2021/01/09 03:58:15;;;;;;;18.77;8.77;;;1.90;92.60;;;;;;6247148;22;20036;-85
2021/01/09 04:00:41;;;;;;;15.47;8.40;;;2.00;92.60;;;;;;6245996;23;20015;-85
2021/01/09 04:03:06;;;;;;;16.70;9.70;;;2.00;92.00;;;;;;6261325;23;20004;-86
2021/01/09 04:05:32;;;;;;;15.90;8.53;;;2.00;91.70;;;;;;6220160;23;20014;-86
2021/01/09 04:07:57;;;;;;;16.47;9.07;;;1.90;91.80;;;;;;6219620;23;20008;-86
2021/01/09 04:10:23;;;;;;;14.47;8.00;;;1.80;91.90;;;;;;6218736;23;20008;-85
2021/01/09 04:12:49;;;;;;;16.03;7.90;;;1.70;92.00;;;;;;6219114;23;20008;-86
2021/01/09 04:15:15;;;;;;;16.13;8.90;;;1.60;92.00;;;;;;6219130;22;20411;-85
2021/01/09 04:17:40;;;;;;;17.27;8.90;;;1.60;91.90;;;;;;6219557;23;20004;-85
2021/01/09 04:20:07;;;;;;;15.30;8.57;;;1.60;92.20;;;;;;6218498;23;20375;-86
2021/01/09 04:22:32;;;;;;;15.10;8.13;;;1.50;92.00;;;;;;6218981;23;20053;-85
2021/01/09 04:24:58;;;;;;;15.67;8.53;;;1.50;91.90;;;;;;6245897;23;20004;-86
2021/01/09 04:27:23;;;;;;;15.37;8.50;;;1.50;92.00;;;;;;6245918;22;20346;-86
2021/01/09 04:29:49;;;;;;;18.00;8.80;;;1.50;92.00;;;;;;6218398;23;20008;-85
2021/01/09 04:32:15;;;;;;;16.47;8.73;;;1.40;91.90;;;;;;6245726;23;20000;-86
2021/01/09 04:34:41;;;;;;;16.60;8.70;;;1.40;92.10;;;;;;6219194;23;20008;-86
2021/01/09 04:37:06;;;;;;;16.83;8.57;;;1.40;91.90;;;;;;6219097;23;20426;-86
2021/01/09 04:39:32;;;;;;;16.73;8.40;;;1.40;92.20;;;;;;6218441;23;20000;-86
2021/01/09 04:41:58;;;;;;;17.03;8.57;;;1.50;91.50;;;;;;6246119;23;20004;-86
2021/01/09 04:44:23;;;;;;;17.00;8.70;;;1.60;91.40;;;;;;6219034;23;20008;-85
2021/01/09 04:46:50;;;;;;;14.33;8.50;;;1.60;91.60;;;;;;6245759;22;20000;-86
2021/01/09 04:49:18;;;;;;;14.87;8.40;;;1.60;91.60;;;;;;6218090;23;20004;-85
2021/01/09 04:51:44;;;;;;;17.13;8.90;;;1.50;91.80;;;;;;6245455;23;20024;-85
2021/01/09 04:54:16;;;;;;;15.87;8.60;;;1.40;91.80;;;;;;6218910;23;20000;-85
2021/01/09 04:56:46;;;;;;;17.97;8.43;;;1.40;91.80;;;;;;6218894;23;20501;-86
2021/01/09 04:59:13;;;;;;;17.00;8.40;;;1.40;91.80;;;;;;6218191;23;20008;-86
2021/01/09 05:01:43;;;;;;;17.00;8.50;;;1.40;91.80;;;;;;6218709;23;20346;-85
2021/01/09 05:04:10;;;;;;;15.33;8.47;;;1.40;91.80;;;;;;6218865;23;20065;-86
2021/01/09 05:06:40;;;;;;;14.20;8.17;;;1.40;91.50;;;;;;6218634;23;20044;-86
2021/01/09 05:09:06;;;;;;;16.20;8.53;;;1.40;91.50;;;;;;6218080;23;20008;-85
2021/01/09 05:11:33;;;;;;;15.97;8.70;;;1.30;91.50;;;;;;6245306;23;20011;-86
2021/01/09 05:13:59;;;;;;;17.80;8.50;;;1.30;91.70;;;;;;6218573;23;20004;-85
2021/01/09 05:16:25;;;;;;;16.53;8.47;;;1.30;91.70;;;;;;6218655;23;20011;-86
2021/01/09 05:18:51;;;;;;;17.43;8.67;;;1.30;91.60;;;;;;6218326;23;20087;-85
2021/01/09 05:21:17;;;;;;;18.97;9.23;;;1.30;91.70;;;;;;6245070;23;20035;-85
2021/01/09 05:24:03;;;;;;;15.53;8.90;;;1.30;91.70;;;;;;6218691;23;20351;-85
2021/01/09 05:26:30;;;;;;;16.73;9.43;;;1.30;91.70;;;;;;6268538;22;20035;-81
2021/01/09 05:28:58;;;;;;;17.20;8.63;;;1.40;91.80;;;;;;6279667;22;20433;-81
2021/01/09 05:31:24;;;;;;;21.10;8.93;;;1.40;91.60;;;;;;6307865;22;20011;-81
2021/01/09 05:33:51;;;;;;;17.87;8.80;;;1.40;91.70;;;;;;6280776;22;20015;-82
2021/01/09 05:36:18;;;;;;;16.67;9.00;;;1.40;91.80;;;;;;6298624;22;20023;-80
2021/01/09 05:38:45;;;;;;;18.73;8.80;;;1.40;91.70;;;;;;6250314;22;20338;-81
2021/01/09 05:41:16;;;;;;;21.03;8.97;;;1.40;91.80;;;;;;6249744;22;20008;-81
2021/01/09 05:43:46;;;;;;;19.17;9.43;;;1.40;92.00;;;;;;6250096;22;20012;-80
2021/01/09 05:46:12;;;;;;;22.20;9.47;;;1.50;92.10;;;;;;6250333;22;20023;-81
2021/01/09 05:48:40;;;;;;;16.73;8.73;;;1.50;92.00;;;;;;6249865;22;20006;-81
2021/01/09 05:51:09;;;;;;;22.27;9.73;;;1.50;92.00;;;;;;6276813;22;20008;-80
2021/01/09 05:53:40;;;;;;;22.85;9.38;;;1.60;92.30;;;;;;6249789;22;20004;-81
2021/01/09 05:56:06;;;;;;;19.73;9.53;;;1.60;92.10;;;;;;6276505;22;20020;-80
2021/01/09 05:58:34;;;;;;;26.73;10.87;;;1.60;92.20;;;;;;6249895;22;20027;-81
2021/01/09 06:01:12;;;;;;;26.13;10.87;;;1.60;92.40;;;;;;6249173;22;20007;-81
2021/01/09 06:03:43;;;;;;;21.95;10.35;;;1.60;92.40;;;;;;6276568;22;20060;-81
2021/01/09 06:06:12;;;;;;;22.83;9.43;;;1.60;92.50;;;;;;6277077;22;20477;-80
2021/01/09 06:08:44;;;;;;;26.80;10.57;;;1.70;92.50;;;;;;6276708;22;20032;-80
2021/01/09 06:11:17;;;;;;;24.57;10.33;;;1.70;92.30;;;;;;6249265;22;20007;-81
2021/01/09 06:13:47;;;;;;;26.50;11.30;;;1.70;92.20;;;;;;6250111;22;20326;-80
2021/01/09 06:16:14;;;;;;;33.93;12.00;;;1.70;92.40;;;;;;6276088;22;20338;-81
2021/01/09 06:18:40;;;;;;;32.13;12.43;;;1.80;92.30;;;;;;6249171;22;20107;-81
2021/01/09 06:21:08;;;;;;;33.00;12.20;;;1.80;92.50;;;;;;6248252;22;20438;-81
2021/01/09 06:23:34;;;;;;;30.43;11.83;;;1.80;92.50;;;;;;6276048;22;20015;-81
2021/01/09 06:26:01;;;;;;;35.40;12.83;;;1.70;92.80;;;;;;6275520;22;20004;-81
2021/01/09 06:28:36;;;;;;;35.30;13.10;;;1.80;92.70;;;;;;6276025;22;19999;-82
2021/01/09 06:31:05;;;;;;;31.77;12.33;;;1.80;92.60;;;;;;6275064;22;20082;-80
2021/01/09 06:33:37;;;;;;;37.42;13.75;;;1.80;92.90;;;;;;6275676;22;20007;-81
2021/01/09 06:36:04;;;;;;;40.27;13.50;;;1.70;93.00;;;;;;6275699;22;20000;-82
2021/01/09 06:38:29;;;;;;;39.37;13.40;;;1.80;93.20;;;;;;6248597;22;20453;-80
2021/01/09 06:40:56;;;;;;;42.53;14.20;;;1.80;93.20;;;;;;6275064;22;20023;-80
2021/01/09 06:43:22;;;;;;;37.00;13.03;;;1.70;93.20;;;;;;6248744;22;20000;-81
2021/01/09 06:45:48;;;;;;;41.77;13.90;;;1.80;93.00;;;;;;6276048;22;20031;-80
2021/01/09 06:48:17;;;;;;;33.53;13.03;;;1.80;93.10;;;;;;6248624;22;20385;-81
2021/01/09 06:50:42;;;;;;;42.10;13.90;;;1.80;93.00;;;;;;6275520;22;20004;-81
2021/01/09 06:53:14;;;;;;;45.30;15.20;;;1.80;93.00;;;;;;6248524;22;20477;-81
2021/01/09 06:55:40;;;;;;;38.87;14.47;;;1.80;93.00;;;;;;6248642;22;19999;-81
2021/01/09 06:58:07;;;;;;;40.67;14.77;;;1.80;93.00;;;;;;6249667;22;20213;-81
2021/01/09 07:00:33;;;;;;;37.23;13.87;;;1.90;92.90;;;;;;6276021;22;19999;-81
2021/01/09 07:03:12;;;;;;;37.93;14.73;;;1.90;92.80;;;;;;6277797;22;20053;-82
2021/01/09 07:05:51;;;;;;;41.58;14.25;;;1.90;92.90;;;;;;6279696;22;20436;-81
2021/01/09 07:08:28;;;;;;;40.27;14.30;;;1.80;93.00;;;;;;6253022;22;20349;-81
2021/01/09 07:10:56;;;;;;;49.90;15.13;;;1.80;93.00;;;;;;6280923;22;20004;-81
2021/01/09 07:13:23;;;;;;;42.47;14.93;;;1.80;93.10;;;;;;6280658;22;20023;-82
2021/01/09 07:16:09;;;;;;;38.83;14.13;;;1.80;93.20;;;;;;6281016;22;20011;-81
2021/01/09 07:18:48;;;;;;;41.43;14.97;;;1.80;93.10;;;;;;6279830;22;19999;-81
2021/01/09 07:21:19;;;;;;;35.60;12.82;;;1.90;93.00;;;;;;6281526;22;20023;-82
2021/01/09 07:23:51;;;;;;;36.90;13.47;;;2.00;92.90;;;;;;6280815;22;20004;-81
2021/01/09 07:26:18;;;;;;;39.43;13.97;;;2.00;92.90;;;;;;6283955;22;20046;-81
2021/01/09 07:28:46;;;;;;;47.60;15.90;;;1.90;92.80;;;;;;6281787;22;20052;-81
2021/01/09 07:31:13;;;;;;;42.40;14.27;;;1.90;93.00;;;;;;6278440;22;20003;-81
2021/01/09 07:33:43;;;;;;;45.17;16.10;;;1.90;92.80;;;;;;6278444;22;20069;-81
2021/01/09 07:36:13;;;;;;;50.33;15.40;;;2.00;92.80;;;;;;6278221;22;20000;-81
2021/01/09 07:38:44;;;;;;;;;;;1.90;92.60;;;;;;6280364;22;20000;-81
2021/01/09 07:41:30;;;;;;;47.70;15.37;;;1.90;92.80;;;;;;6278969;22;19907;-81
2021/01/09 07:44:10;;;;;;;52.80;15.47;;;1.80;92.80;;;;;;6251921;22;20426;-81
2021/01/09 07:46:36;;;;;;;53.80;16.73;;;1.80;93.10;;;;;;6279359;22;20482;-81
2021/01/09 07:49:03;;;;;;;56.50;15.10;;;1.80;93.00;;;;;;6278962;22;20082;-82
2021/01/09 07:51:49;;;;;;;41.80;16.00;;;1.90;93.00;;;;;;6281007;22;20015;-81
2021/01/09 07:54:37;;;;;;;43.07;15.80;;;2.00;93.00;;;;;;6278507;22;20002;-81
2021/01/09 07:57:04;;;;;;;55.07;16.30;;;2.00;93.00;;;;;;6277461;22;20342;-80
2021/01/09 07:59:30;;;;;;;51.33;16.80;;;2.00;93.00;;;;;;6276480;22;20022;-80
2021/01/09 08:01:56;;;;;;;56.47;17.03;;;2.00;93.00;;;;;;6249583;22;20008;-81
2021/01/09 08:04:22;;;;;;;55.50;17.27;;;2.00;93.20;;;;;;6250514;22;20449;-81
2021/01/09 08:06:47;;;;;;;62.33;18.80;;;2.10;93.00;;;;;;6277478;22;20003;-80
2021/01/09 08:09:13;;;;;;;64.97;19.77;;;2.10;93.20;;;;;;6249709;22;20008;-81
2021/01/09 08:11:46;;;;;;;64.57;19.60;;;2.10;93.20;;;;;;6277536;22;20003;-80
2021/01/09 08:14:13;;;;;;;62.53;19.60;;;2.10;93.40;;;;;;6249555;22;20006;-80
2021/01/09 08:16:42;;;;;;;63.37;18.93;;;2.10;93.20;;;;;;6277356;22;19995;-80
2021/01/09 08:19:14;;;;;;;62.15;19.02;;;2.10;93.10;;;;;;6249717;22;20444;-80
2021/01/09 08:21:40;;;;;;;58.90;17.97;;;2.10;93.30;;;;;;6277514;22;20008;-80
2021/01/09 08:24:06;;;;;;;66.23;20.07;;;2.10;93.10;;;;;;6277449;22;20060;-80
2021/01/09 08:26:32;;;;;;;61.70;18.43;;;2.20;93.20;;;;;;6277471;22;20007;-80
2021/01/09 08:28:58;;;;;;;63.87;19.63;;;2.20;93.30;;;;;;6249475;22;20011;-80
2021/01/09 08:31:25;;;;;;;61.63;20.97;;;2.10;93.30;;;;;;6277279;22;20000;-80
2021/01/09 08:33:51;;;;;;;64.63;19.73;;;2.10;93.40;;;;;;6277410;22;20006;-81
2021/01/09 08:36:20;;;;;;;56.97;19.43;;;2.20;93.30;;;;;;6250023;22;20027;-80
2021/01/09 08:38:45;;;;;;;67.03;20.23;;;2.20;93.20;;;;;;6277585;22;20369;-80
2021/01/09 08:41:11;;;;;;;61.97;20.30;;;2.20;93.10;;;;;;6276409;22;20027;-80
2021/01/09 08:43:36;;;;;;;65.83;20.73;;;2.30;93.00;;;;;;6249938;22;20330;-80
2021/01/09 08:46:02;;;;;;;68.40;20.43;;;2.20;93.20;;;;;;6276831;22;20038;-80
2021/01/09 08:48:33;;;;;;;79.50;21.47;;;2.20;93.10;;;;;;6276702;22;20003;-80
2021/01/09 08:51:10;;;;;;;56.20;19.10;;;2.20;93.30;;;;;;6275981;22;19999;-80
2021/01/09 08:53:48;;;;;;;55.33;18.67;;;2.30;93.30;;;;;;6277143;22;20003;-81
2021/01/09 08:56:14;;;;;;;46.73;17.30;;;2.20;93.10;;;;;;6250452;22;20004;-80
2021/01/09 08:58:40;;;;;;;38.33;14.77;;;2.20;93.30;;;;;;6277088;22;20382;-80
2021/01/09 09:01:09;;;;;;;42.47;16.57;;;2.30;93.10;;;;;;6276221;22;19999;-80
2021/01/09 09:03:39;;;;;;;37.20;15.20;;;2.20;93.00;;;;;;6276723;22;20335;-81
2021/01/09 09:06:13;;;;;;;34.10;14.70;;;2.20;93.10;;;;;;6276451;22;20368;-80
2021/01/09 09:08:39;;;;;;;39.00;15.67;;;2.20;93.10;;;;;;6249054;22;20038;-80
2021/01/09 09:11:05;;;;;;;37.37;14.53;;;2.30;93.40;;;;;;6275804;22;20034;-80
2021/01/09 09:13:32;;;;;;;46.73;15.90;;;2.30;93.30;;;;;;6276331;22;20000;-80
2021/01/09 09:16:13;;;;;;;43.57;15.50;;;2.30;92.90;;;;;;6276206;22;20004;-80
2021/01/09 09:18:39;;;;;;;44.00;16.50;;;2.30;93.00;;;;;;6276128;22;20003;-80
2021/01/09 09:21:08;;;;;;;43.30;16.17;;;2.30;93.00;;;;;;6275629;22;20356;-80
2021/01/09 09:23:34;;;;;;;;;;;2.30;93.10;;;;;;6249527;22;20003;-80
2021/01/09 09:26:13;;;;;;;47.03;16.93;;;2.30;93.00;;;;;;6248539;22;19910;-80
2021/01/09 09:28:45;;;;;;;44.17;15.13;;;2.30;92.90;;;;;;6276062;22;20030;-80
2021/01/09 09:31:28;;;;;;;43.67;16.80;;;2.30;93.10;;;;;;6275125;22;20014;-81
2021/01/09 09:33:57;;;;;;;44.20;15.87;;;2.30;93.30;;;;;;6277192;22;20075;-81
2021/01/09 09:36:23;;;;;;;57.58;17.73;;;2.30;93.20;;;;;;6249731;22;20071;-81
2021/01/09 09:38:48;;;;;;;57.00;18.00;;;2.30;93.20;;;;;;6276304;22;20334;-81
2021/01/09 09:41:14;;;;;;;52.80;16.27;;;2.30;93.00;;;;;;6250769;22;20084;-82
2021/01/09 09:43:40;;;;;;;36.93;15.07;;;2.30;93.10;;;;;;6276926;22;20326;-81
2021/01/09 09:46:07;;;;;;;40.17;14.50;;;2.40;92.90;;;;;;6277004;22;20008;-81
2021/01/09 09:48:37;;;;;;;41.73;15.17;;;2.40;92.80;;;;;;6277562;22;20354;-82
2021/01/09 09:51:06;;;;;;;45.63;14.47;;;2.40;92.60;;;;;;6275393;22;20055;-81
2021/01/09 09:53:35;;;;;;;44.15;14.30;;;2.40;92.50;;;;;;6276355;22;19995;-81
2021/01/09 09:56:21;;;;;;;37.78;14.05;;;2.40;92.50;;;;;;6249005;22;20004;-82
2021/01/09 09:58:59;;;;;;;35.87;13.57;;;2.20;92.60;;;;;;6276009;22;20449;-82
2021/01/09 10:01:24;;;;;;;39.30;14.17;;;2.30;92.60;;;;;;6276227;22;20381;-82
2021/01/09 10:03:50;;;;;;;33.87;14.03;;;2.30;92.70;;;;;;6249199;22;20004;-82
2021/01/09 10:06:17;;;;;;;28.97;14.27;;;2.40;92.50;;;;;;6276293;22;20023;-81
2021/01/09 10:08:43;;;;;;;34.47;14.50;;;2.40;92.30;;;;;;6249218;22;20510;-81
2021/01/09 10:11:10;;;;;;;30.30;14.37;;;2.40;92.40;;;;;;6276025;22;20000;-81
2021/01/09 10:13:36;;;;;;;33.57;14.00;;;2.30;92.20;;;;;;6278061;22;20081;-81
2021/01/09 10:16:02;;;;;;;30.63;14.00;;;2.40;92.20;;;;;;6277663;22;20386;-81
2021/01/09 10:18:30;;;;;;;34.77;14.80;;;2.40;92.40;;;;;;6275612;22;19999;-81
2021/01/09 10:20:56;;;;;;;31.23;14.23;;;2.40;92.50;;;;;;6249331;22;20004;-82
2021/01/09 10:23:22;;;;;;;28.87;14.47;;;2.50;92.60;;;;;;6248421;22;20012;-81
2021/01/09 10:25:48;;;;;;;29.33;14.07;;;2.40;92.70;;;;;;6275576;22;20049;-81
2021/01/09 10:28:14;;;;;;;30.20;13.87;;;2.50;92.60;;;;;;6248784;22;20000;-81
2021/01/09 10:30:40;;;;;;;30.90;13.67;;;2.50;92.60;;;;;;6275261;22;20470;-81
2021/01/09 10:33:07;;;;;;;28.07;14.37;;;2.50;92.80;;;;;;6248159;22;20360;-81
2021/01/09 10:35:33;;;;;;;30.50;13.97;;;2.50;92.70;;;;;;6275635;22;19999;-81
2021/01/09 10:37:59;;;;;;;33.00;14.03;;;2.50;92.80;;;;;;6275797;22;20054;-81
2021/01/09 10:40:24;;;;;;;31.53;14.27;;;2.60;92.60;;;;;;6274364;22;20505;-81
2021/01/09 10:42:50;;;;;;;35.10;14.77;;;2.60;92.60;;;;;;6275387;22;20365;-82
2021/01/09 10:45:16;;;;;;;33.30;14.93;;;2.60;92.50;;;;;;6275723;22;20316;-82
2021/01/09 10:47:42;;;;;;;40.20;17.40;;;2.60;92.70;;;;;;6249318;22;20058;-81
2021/01/09 10:50:09;;;;;;;40.27;15.23;;;2.60;92.70;;;;;;6274933;22;20507;-81
2021/01/09 10:52:34;;;;;;;38.20;15.00;;;2.60;92.70;;;;;;6275971;22;20342;-81
2021/01/09 10:55:01;;;;;;;43.83;16.83;;;2.60;92.60;;;;;;6248283;22;20004;-81
2021/01/09 10:57:27;;;;;;;46.63;18.53;;;2.70;92.80;;;;;;6275239;22;20059;-81
2021/01/09 10:59:53;;;;;;;40.07;17.17;;;2.70;92.90;;;;;;6275072;22;20052;-82
2021/01/09 11:02:18;;;;;;;37.77;17.17;;;2.70;92.80;;;;;;6276110;22;20053;-81
2021/01/09 11:04:44;;;;;;;40.47;17.10;;;2.70;92.60;;;;;;6275588;22;20027;-81
2021/01/09 11:07:10;;;;;;;45.23;17.73;;;2.70;92.70;;;;;;6275701;22;20057;-81
2021/01/09 11:09:35;;;;;;;39.60;17.63;;;2.70;92.70;;;;;;6274821;22;20422;-81
2021/01/09 11:12:01;;;;;;;41.33;17.47;;;2.70;93.00;;;;;;6275602;22;20027;-81
2021/01/09 11:14:26;;;;;;;42.43;18.97;;;2.70;93.00;;;;;;6275446;22;20022;-81
2021/01/09 11:16:56;;;;;;;47.13;20.30;;;2.70;92.80;;;;;;6275571;22;20081;-81
2021/01/09 11:19:22;;;;;;;56.33;22.63;;;2.70;93.00;;;;;;6275148;22;20114;-81
2021/01/09 11:21:48;;;;;;;59.30;24.00;;;2.70;93.00;;;;;;6276003;22;20000;-82
2021/01/09 11:24:14;;;;;;;66.23;25.93;;;2.70;93.00;;;;;;6275862;22;20413;-81
2021/01/09 11:26:39;;;;;;;65.77;26.07;;;2.70;92.90;;;;;;6245071;22;20018;-86
2021/01/09 11:29:05;;;;;;;63.23;25.77;;;2.70;93.10;;;;;;6274551;22;20003;-85
2021/01/09 11:31:30;;;;;;;64.10;24.83;;;2.80;93.20;;;;;;6247867;22;20448;-86
2021/01/09 11:33:56;;;;;;;69.37;24.73;;;2.80;93.50;;;;;;6248052;22;19999;-86
2021/01/09 11:36:22;;;;;;;65.37;25.63;;;2.80;93.30;;;;;;6241514;23;20093;-85
2021/01/09 11:38:48;;;;;;;68.50;24.73;;;2.80;93.40;;;;;;6244188;23;20500;-85
2021/01/09 11:41:14;;;;;;;62.70;24.07;;;2.80;93.40;;;;;;6217278;23;20431;-86
2021/01/09 11:43:44;;;;;;;61.77;21.97;;;2.80;93.50;;;;;;6217619;23;20004;-86
2021/01/09 11:46:13;;;;;;;67.57;23.80;;;2.80;93.50;;;;;;6217243;22;20095;-85
2021/01/09 11:48:41;;;;;;;57.50;23.63;;;2.80;93.50;;;;;;6218436;23;20494;-85
2021/01/09 11:51:08;;;;;;;57.70;23.15;;;2.90;93.60;;;;;;6243118;23;20034;-86
2021/01/09 11:53:36;;;;;;;58.77;23.30;;;2.90;93.70;;;;;;6246194;23;20077;-86
2021/01/09 11:56:02;;;;;;;47.97;20.73;;;2.90;93.80;;;;;;6219937;22;20071;-86
2021/01/09 11:58:27;;;;;;;49.67;20.73;;;2.90;93.50;;;;;;6219618;23;20083;-86
2021/01/09 12:00:53;;;;;;;49.83;21.00;;;2.90;93.60;;;;;;6219623;23;20004;-86
2021/01/09 12:03:18;;;;;;;46.20;19.77;;;2.90;93.60;;;;;;6219802;23;20004;-85
2021/01/09 12:05:45;;;;;;;46.87;20.03;;;2.90;93.70;;;;;;6245433;22;20000;-85
2021/01/09 12:08:14;;;;;;;42.77;19.13;;;2.90;93.60;;;;;;6246849;22;20000;-85
2021/01/09 12:10:42;;;;;;;36.97;18.93;;;3.00;93.60;;;;;;6246378;23;20007;-86
2021/01/09 12:13:07;;;;;;;44.00;19.27;;;3.00;93.50;;;;;;6219294;23;20027;-85
2021/01/09 12:15:33;;;;;;;40.47;20.63;;;2.90;93.50;;;;;;6219727;23;20000;-85
2021/01/09 12:18:01;;;;;;;45.33;20.53;;;3.00;93.60;;;;;;6219534;23;20058;-85
2021/01/09 12:20:27;;;;;;;43.73;19.50;;;2.90;93.00;;;;;;6219495;23;20011;-85
2021/01/09 12:22:52;;;;;;;38.80;19.30;;;2.80;93.30;;;;;;6219988;23;20008;-86
2021/01/09 12:25:18;;;;;;;38.03;19.30;;;2.80;93.30;;;;;;6219869;23;20426;-86
2021/01/09 12:27:44;;;;;;;41.57;20.80;;;2.70;93.30;;;;;;6246338;22;20015;-86
2021/01/09 12:30:10;;;;;;;40.23;19.47;;;2.70;93.20;;;;;;6246546;23;20012;-85
2021/01/09 12:32:45;;;;;;;36.33;19.30;;;2.80;93.50;;;;;;6220227;23;20088;-86
2021/01/09 12:35:14;;;;;;;37.60;20.07;;;2.70;93.60;;;;;;6224345;23;20487;-85
2021/01/09 12:37:40;;;;;;;39.45;20.00;;;2.80;93.30;;;;;;6228109;23;20219;-85
2021/01/09 12:40:08;;;;;;;37.87;20.90;;;2.80;93.30;;;;;;6226370;23;20358;-86
2021/01/09 12:42:35;;;;;;;41.40;22.30;;;2.80;93.20;;;;;;6252483;23;20004;-86